createdAt,value
2019-04-30T00:01:07.518Z,99.90
2019-04-30T00:03:35.090Z,99.90
2019-04-30T00:06:02.018Z,99.90
2019-04-30T00:08:35.430Z,99.90
2019-04-30T00:11:00.498Z,99.90
2019-04-30T00:13:29.322Z,99.90
2019-04-30T00:16:01.515Z,99.90
2019-04-30T00:18:30.769Z,99.90
2019-04-30T00:20:56.043Z,99.90
2019-04-30T00:23:29.320Z,99.90
2019-04-30T00:25:58.366Z,99.90
2019-04-30T00:28:22.605Z,99.90
2019-04-30T00:30:51.460Z,99.90
2019-04-30T00:33:22.134Z,99.90
2019-04-30T00:35:54.130Z,99.90
2019-04-30T00:38:18.737Z,99.90
2019-04-30T00:40:47.602Z,99.90
2019-04-30T00:43:16.457Z,99.90
2019-04-30T00:45:47.565Z,99.90
2019-04-30T00:48:19.751Z,99.90
2019-04-30T00:50:43.027Z,99.90
2019-04-30T00:53:14.026Z,99.90
2019-04-30T00:55:44.933Z,99.90
2019-04-30T00:58:09.620Z,99.90
2019-04-30T01:00:39.177Z,99.90
2019-04-30T01:03:09.527Z,99.90
2019-04-30T01:05:39.592Z,99.90
2019-04-30T01:08:07.079Z,99.90
2019-04-30T01:10:35.495Z,99.90
2019-04-30T01:13:10.191Z,99.90
2019-04-30T01:15:33.194Z,99.90
2019-04-30T01:18:02.069Z,99.90
2019-04-30T01:20:32.935Z,99.90
2019-04-30T01:23:03.029Z,99.90
2019-04-30T01:25:30.131Z,99.90
2019-04-30T01:27:58.990Z,99.90
2019-04-30T01:30:28.460Z,99.90
2019-04-30T01:32:58.250Z,99.90
2019-04-30T01:35:29.045Z,99.90
2019-04-30T01:37:54.430Z,99.90
2019-04-30T01:40:23.291Z,99.90
2019-04-30T01:42:52.192Z,99.90
2019-04-30T01:45:23.136Z,99.90
2019-04-30T01:47:49.875Z,99.90
2019-04-30T01:50:19.523Z,99.90
2019-04-30T01:52:52.959Z,99.90
2019-04-30T01:55:21.864Z,99.90
2019-04-30T01:57:51.461Z,99.90
2019-04-30T02:00:21.059Z,99.90
2019-04-30T02:02:49.913Z,99.90
2019-04-30T02:05:20.803Z,99.90
2019-04-30T02:07:49.665Z,99.90
2019-04-30T02:10:18.714Z,99.90
2019-04-30T02:12:49.181Z,99.90
2019-04-30T02:15:16.975Z,99.90
2019-04-30T02:17:45.824Z,99.90
2019-04-30T02:20:14.684Z,99.90
2019-04-30T02:22:43.546Z,99.90
2019-04-30T02:25:13.210Z,99.90
2019-04-30T02:27:42.045Z,99.90
2019-04-30T02:30:11.650Z,99.90
2019-04-30T02:32:40.503Z,99.90
2019-04-30T02:35:15.108Z,99.90
2019-04-30T02:37:44.850Z,99.90
2019-04-30T02:40:13.704Z,99.90
2019-04-30T02:42:42.561Z,99.90
2019-04-30T02:45:11.425Z,99.90
2019-04-30T02:47:40.282Z,99.90
2019-04-30T02:50:15.641Z,99.90
2019-04-30T02:52:40.114Z,99.90
2019-04-30T02:55:09.326Z,99.90
2019-04-30T02:57:35.768Z,99.90
2019-04-30T03:00:04.583Z,99.90
2019-04-30T03:02:33.458Z,99.90
2019-04-30T03:05:02.337Z,99.90
2019-04-30T03:07:31.198Z,99.90
2019-04-30T03:10:00.169Z,99.90
2019-04-30T03:12:33.205Z,99.90
2019-04-30T03:15:00.263Z,99.90
2019-04-30T03:17:29.371Z,99.90
2019-04-30T03:22:31.026Z,99.90
2019-04-30T03:24:59.949Z,99.90
2019-04-30T03:27:30.187Z,99.90
2019-04-30T03:29:59.981Z,99.90
2019-04-30T03:32:31.005Z,99.90
2019-04-30T03:34:56.082Z,99.90
2019-04-30T03:37:24.955Z,99.90
2019-04-30T03:39:53.822Z,99.90
2019-04-30T03:42:22.668Z,99.90
2019-04-30T03:44:52.282Z,99.90
2019-04-30T03:47:21.888Z,99.90
2019-04-30T03:49:50.744Z,99.90
2019-04-30T03:52:19.922Z,99.90
2019-04-30T03:54:49.469Z,99.90
2019-04-30T03:57:20.499Z,99.90
2019-04-30T03:59:49.770Z,99.90
2019-04-30T04:02:16.651Z,99.90
2019-04-30T04:04:45.558Z,99.90
2019-04-30T04:07:15.123Z,99.90
2019-04-30T04:09:44.748Z,99.90
2019-04-30T04:12:20.378Z,99.90
2019-04-30T04:14:50.723Z,99.90
2019-04-30T04:17:16.859Z,99.90
2019-04-30T04:19:45.755Z,99.90
2019-04-30T04:22:15.351Z,99.90
2019-04-30T04:24:44.200Z,99.90
2019-04-30T04:27:13.048Z,99.90
2019-04-30T04:29:41.922Z,99.90
2019-04-30T04:32:11.526Z,99.90
2019-04-30T04:37:10.547Z,99.90
2019-04-30T04:39:42.093Z,99.90
2019-04-30T04:42:10.143Z,99.90
2019-04-30T04:44:39.900Z,99.90
2019-04-30T04:47:06.701Z,99.90
2019-04-30T04:49:36.272Z,99.90
2019-04-30T04:52:05.119Z,99.90
2019-04-30T04:54:34.718Z,99.90
2019-04-30T04:57:14.928Z,99.90
2019-04-30T04:59:32.435Z,99.90
2019-04-30T05:02:01.481Z,99.90
2019-04-30T05:04:30.333Z,99.90
2019-04-30T05:07:00.032Z,99.90
2019-04-30T05:09:28.771Z,99.90
2019-04-30T05:11:58.580Z,99.90
2019-04-30T05:14:28.686Z,99.90
2019-04-30T05:16:55.342Z,99.90
2019-04-30T05:19:24.185Z,99.90
2019-04-30T05:21:53.031Z,99.90
2019-04-30T05:24:21.892Z,99.90
2019-04-30T05:26:50.745Z,99.90
2019-04-30T05:29:19.595Z,99.90
2019-04-30T05:31:49.178Z,99.90
2019-04-30T05:34:18.857Z,99.90
2019-04-30T05:36:48.840Z,99.90
2019-04-30T05:39:15.764Z,99.90
2019-04-30T05:41:44.612Z,99.90
2019-04-30T05:44:13.459Z,99.90
2019-04-30T05:46:43.058Z,99.90
2019-04-30T05:49:11.924Z,99.90
2019-04-30T05:51:52.624Z,99.90
2019-04-30T05:54:09.637Z,99.90
2019-04-30T05:56:39.866Z,99.90
2019-04-30T05:59:08.998Z,99.90
2019-04-30T06:01:36.924Z,99.90
2019-04-30T06:04:05.776Z,99.90
2019-04-30T06:06:34.645Z,99.90
2019-04-30T06:09:13.043Z,99.90
2019-04-30T06:11:41.711Z,99.90
2019-04-30T06:14:11.473Z,99.90
2019-04-30T06:16:40.358Z,99.90
2019-04-30T06:19:09.178Z,99.90
2019-04-30T06:21:39.117Z,99.90
2019-04-30T06:24:08.289Z,99.90
2019-04-30T06:26:36.469Z,99.90
2019-04-30T06:29:05.318Z,99.90
2019-04-30T06:31:37.460Z,99.90
2019-04-30T06:34:03.786Z,99.90
2019-04-30T06:36:32.640Z,99.90
2019-04-30T06:39:01.505Z,99.90
2019-04-30T06:41:31.122Z,99.90
2019-04-30T06:44:00.710Z,99.90
2019-04-30T06:46:29.566Z,99.90
2019-04-30T06:48:59.492Z,99.90
2019-04-30T06:51:30.551Z,99.90
2019-04-30T06:53:56.176Z,99.90
2019-04-30T06:56:25.020Z,99.90
2019-04-30T06:58:53.879Z,99.90
2019-04-30T07:01:22.716Z,99.90
2019-04-30T07:03:51.554Z,99.90
2019-04-30T07:06:29.153Z,99.90
2019-04-30T07:08:55.547Z,99.90
2019-04-30T07:11:20.030Z,99.90
2019-04-30T07:13:51.744Z,99.90
2019-04-30T07:16:19.008Z,99.90
2019-04-30T07:18:48.758Z,99.90
2019-04-30T07:21:15.483Z,99.90
2019-04-30T07:23:44.320Z,99.90
2019-04-30T07:26:13.890Z,99.90
2019-04-30T07:28:47.920Z,99.90
2019-04-30T07:31:14.309Z,99.90
2019-04-30T07:33:39.806Z,99.90
2019-04-30T07:36:09.760Z,99.90
2019-04-30T07:38:43.181Z,99.90
2019-04-30T07:41:07.044Z,99.90
2019-04-30T07:43:39.060Z,99.90
2019-04-30T07:46:06.233Z,99.90
2019-04-30T07:48:35.090Z,99.90
2019-04-30T07:51:03.957Z,99.90
2019-04-30T07:53:32.810Z,99.90
2019-04-30T07:56:02.246Z,99.90
2019-04-30T07:58:30.527Z,99.90
2019-04-30T08:00:59.438Z,99.90
2019-04-30T08:03:30.303Z,99.90
2019-04-30T08:05:59.561Z,99.90
2019-04-30T08:08:26.233Z,99.90
2019-04-30T08:10:54.878Z,99.90
2019-04-30T08:13:24.266Z,99.90
2019-04-30T08:15:53.304Z,99.90
2019-04-30T08:18:22.138Z,99.90
2019-04-30T08:20:51.734Z,99.90
2019-04-30T08:23:34.152Z,99.90
2019-04-30T08:25:49.437Z,99.90
2019-04-30T08:28:18.719Z,99.90
2019-04-30T08:30:48.886Z,99.90
2019-04-30T08:33:16.006Z,99.90
2019-04-30T08:35:44.863Z,99.90
2019-04-30T08:38:13.712Z,99.90
2019-04-30T08:40:53.365Z,99.90
2019-04-30T08:43:11.410Z,99.90
2019-04-30T08:45:40.252Z,99.90
2019-04-30T08:48:09.164Z,99.90
2019-04-30T08:50:39.412Z,99.90
2019-04-30T08:53:06.797Z,99.90
2019-04-30T08:55:35.659Z,99.90
2019-04-30T08:58:09.933Z,99.90
2019-04-30T09:00:33.358Z,99.90
2019-04-30T09:03:02.942Z,99.90
2019-04-30T09:05:33.682Z,99.90
2019-04-30T09:08:02.515Z,99.90
2019-04-30T09:10:31.361Z,99.90
2019-04-30T09:13:00.212Z,99.90
2019-04-30T09:15:29.159Z,99.90
2019-04-30T09:18:03.837Z,99.90
2019-04-30T09:20:26.805Z,99.90
2019-04-30T09:22:55.620Z,99.90
2019-04-30T09:25:24.484Z,99.90
2019-04-30T09:27:53.348Z,99.90
2019-04-30T09:30:22.209Z,99.90
2019-04-30T09:32:51.072Z,99.90
2019-04-30T09:35:19.924Z,99.90
2019-04-30T09:37:49.587Z,99.90
2019-04-30T09:40:20.632Z,99.90
2019-04-30T09:42:48.673Z,99.90
2019-04-30T09:45:16.446Z,99.90
2019-04-30T09:47:45.304Z,99.90
2019-04-30T09:50:14.693Z,99.90
2019-04-30T09:52:43.611Z,99.90
2019-04-30T09:55:12.962Z,99.90
2019-04-30T10:00:11.226Z,99.90
2019-04-30T10:02:40.086Z,99.90
2019-04-30T10:05:09.412Z,99.90
2019-04-30T10:07:39.334Z,99.90
2019-04-30T10:10:09.406Z,99.90
2019-04-30T10:12:36.213Z,99.90
2019-04-30T10:15:05.079Z,99.90
2019-04-30T10:17:33.946Z,99.90
2019-04-30T10:20:02.793Z,99.90
2019-04-30T10:22:31.634Z,99.90
2019-04-30T10:25:00.476Z,99.90
2019-04-30T10:27:29.562Z,99.90
2019-04-30T10:29:59.394Z,99.90
2019-04-30T10:32:29.827Z,99.90
2019-04-30T10:34:56.684Z,99.90
2019-04-30T10:37:25.532Z,99.90
2019-04-30T10:39:54.405Z,99.90
2019-04-30T10:42:23.992Z,99.90
2019-04-30T10:44:52.835Z,99.90
2019-04-30T10:47:22.580Z,99.90
2019-04-30T10:49:51.436Z,99.90
2019-04-30T10:52:20.270Z,99.90
2019-04-30T10:54:49.611Z,99.90
2019-04-30T10:57:18.443Z,99.90
2019-04-30T10:59:48.621Z,99.90
2019-04-30T11:02:15.707Z,99.90
2019-04-30T11:04:44.545Z,99.90
2019-04-30T11:07:13.426Z,99.90
2019-04-30T11:09:43.030Z,99.90
2019-04-30T11:12:12.620Z,99.90
2019-04-30T11:14:41.489Z,99.90
2019-04-30T11:17:10.467Z,99.90
2019-04-30T11:19:39.305Z,99.90
2019-04-30T11:22:08.241Z,99.90
2019-04-30T11:24:53.378Z,99.90
2019-04-30T11:27:06.066Z,99.90
2019-04-30T11:29:35.470Z,99.90
2019-04-30T11:32:04.464Z,99.70
2019-04-30T11:34:36.980Z,99.90
2019-04-30T11:37:05.819Z,99.90
2019-04-30T11:39:34.672Z,99.90
2019-04-30T11:42:03.522Z,98.00
2019-04-30T11:44:33.154Z,98.10
2019-04-30T11:49:40.526Z,96.30
2019-04-30T11:52:09.375Z,96.90
2019-04-30T11:54:48.648Z,92.20
2019-04-30T11:57:08.782Z,95.80
2019-04-30T11:59:35.908Z,94.10
2019-04-30T12:02:04.764Z,93.30
2019-04-30T12:04:33.597Z,93.80
2019-04-30T12:07:02.446Z,91.70
2019-04-30T12:09:35.112Z,85.20
2019-04-30T12:12:03.964Z,88.50
2019-04-30T12:14:32.800Z,88.70
2019-04-30T12:17:02.397Z,89.10
2019-04-30T12:19:31.255Z,86.90
2019-04-30T12:22:00.114Z,83.60
2019-04-30T12:24:30.397Z,84.80
2019-04-30T12:26:58.569Z,87.40
2019-04-30T12:29:29.142Z,81.10
2019-04-30T12:31:56.277Z,81.50
2019-04-30T12:34:25.859Z,82.60
2019-04-30T12:36:54.713Z,81.50
2019-04-30T12:39:23.575Z,73.60
2019-04-30T12:41:52.421Z,75.60
2019-04-30T12:44:21.296Z,71.30
2019-04-30T12:46:50.148Z,70.40
2019-04-30T12:49:19.092Z,78.20
2019-04-30T12:51:53.356Z,68.50
2019-04-30T12:54:28.134Z,69.30
2019-04-30T12:56:59.890Z,72.10
2019-04-30T12:59:28.743Z,67.40
2019-04-30T13:01:59.302Z,68.80
2019-04-30T13:04:26.448Z,66.50
2019-04-30T13:06:55.649Z,65.00
2019-04-30T13:09:24.541Z,66.50
2019-04-30T13:11:53.420Z,63.50
2019-04-30T13:14:22.382Z,63.70
2019-04-30T13:16:50.717Z,60.20
2019-04-30T13:19:19.570Z,63.70
2019-04-30T13:21:48.407Z,67.20
2019-04-30T13:24:17.284Z,62.40
2019-04-30T13:26:46.115Z,60.30
2019-04-30T13:29:14.978Z,57.90
2019-04-30T13:31:43.827Z,57.20
2019-04-30T13:34:15.511Z,57.50
2019-04-30T13:36:44.373Z,56.90
2019-04-30T13:39:15.046Z,58.20
2019-04-30T13:41:46.171Z,55.70
2019-04-30T13:44:13.413Z,54.20
2019-04-30T13:46:42.298Z,54.70
2019-04-30T13:49:11.139Z,59.70
2019-04-30T13:51:42.869Z,55.30
2019-04-30T13:54:09.634Z,55.30
2019-04-30T13:56:39.747Z,53.30
2019-04-30T13:59:08.239Z,53.70
2019-04-30T14:01:38.953Z,58.30
2019-04-30T14:04:10.909Z,54.00
2019-04-30T14:06:45.297Z,52.10
2019-04-30T14:09:15.959Z,51.70
2019-04-30T14:11:44.869Z,51.50
2019-04-30T14:14:13.693Z,51.50
2019-04-30T14:16:43.869Z,52.00
2019-04-30T14:19:12.147Z,50.40
2019-04-30T14:21:41.014Z,49.90
2019-04-30T14:24:09.873Z,51.30
2019-04-30T14:26:39.196Z,52.00
2019-04-30T14:29:07.573Z,51.90
2019-04-30T14:34:05.856Z,53.90
2019-04-30T14:36:34.719Z,49.60
2019-04-30T14:39:13.658Z,49.10
2019-04-30T14:41:33.012Z,46.40
2019-04-30T14:44:01.691Z,47.80
2019-04-30T14:46:34.163Z,47.30
2019-04-30T14:49:03.578Z,48.70
2019-04-30T14:51:31.467Z,47.30
2019-04-30T14:54:03.207Z,47.60
2019-04-30T14:56:34.852Z,51.40
2019-04-30T14:59:08.811Z,49.60
2019-04-30T15:01:42.580Z,48.70
2019-04-30T15:04:11.433Z,48.60
2019-04-30T15:06:40.301Z,46.40
2019-04-30T15:09:09.155Z,47.30
2019-04-30T15:11:38.734Z,44.30
2019-04-30T15:14:06.851Z,44.80
2019-04-30T15:16:35.729Z,44.20
2019-04-30T15:19:04.575Z,47.20
2019-04-30T15:21:33.419Z,45.30
2019-04-30T15:24:02.308Z,45.90
2019-04-30T15:26:31.125Z,46.90
2019-04-30T15:29:00.714Z,46.20
2019-04-30T15:31:29.805Z,48.10
2019-04-30T15:34:02.880Z,43.40
2019-04-30T15:36:29.317Z,47.60
2019-04-30T15:38:59.505Z,47.00
2019-04-30T15:41:28.377Z,43.30
2019-04-30T15:43:57.227Z,42.40
2019-04-30T15:46:26.091Z,43.50
2019-04-30T15:48:54.916Z,42.20
2019-04-30T15:51:24.522Z,43.30
2019-04-30T15:53:53.373Z,44.10
2019-04-30T15:56:34.105Z,41.80
2019-04-30T15:58:58.894Z,42.80
2019-04-30T16:01:26.250Z,44.20
2019-04-30T16:03:55.137Z,42.70
2019-04-30T16:06:23.971Z,43.10
2019-04-30T16:08:52.820Z,43.50
2019-04-30T16:11:23.401Z,43.70
2019-04-30T16:13:58.533Z,44.00
2019-04-30T16:16:27.341Z,43.70
2019-04-30T16:18:56.208Z,45.80
2019-04-30T16:21:25.072Z,45.70
2019-04-30T16:23:53.926Z,44.80
2019-04-30T16:26:23.513Z,42.90
2019-04-30T16:28:52.362Z,42.70
2019-04-30T16:31:21.201Z,42.00
2019-04-30T16:33:50.053Z,42.30
2019-04-30T16:36:19.393Z,42.60
2019-04-30T16:38:48.660Z,43.00
2019-04-30T16:41:28.845Z,43.90
2019-04-30T16:43:45.493Z,46.60
2019-04-30T16:46:15.044Z,45.00
2019-04-30T16:48:44.646Z,43.60
2019-04-30T16:51:13.505Z,42.80
2019-04-30T16:53:42.358Z,44.70
2019-04-30T16:56:11.215Z,47.70
2019-04-30T16:58:45.521Z,46.50
2019-04-30T17:01:14.384Z,46.30
2019-04-30T17:03:43.215Z,48.10
2019-04-30T17:06:12.078Z,47.20
2019-04-30T17:08:41.830Z,46.90
2019-04-30T17:11:10.651Z,46.30
2019-04-30T17:13:39.504Z,47.90
2019-04-30T17:16:10.993Z,47.30
2019-04-30T17:18:41.523Z,49.30
2019-04-30T17:21:09.748Z,50.00
2019-04-30T17:23:36.411Z,49.50
2019-04-30T17:26:05.267Z,50.10
2019-04-30T17:28:34.126Z,49.40
2019-04-30T17:31:02.985Z,49.80
2019-04-30T17:33:31.845Z,50.00
2019-04-30T17:36:00.761Z,50.50
2019-04-30T17:38:29.554Z,51.70
2019-04-30T17:40:58.408Z,52.80
2019-04-30T17:43:27.256Z,54.10
2019-04-30T17:45:56.101Z,54.70
2019-04-30T17:48:25.688Z,55.30
2019-04-30T17:50:54.536Z,54.30
2019-04-30T17:53:23.378Z,54.60
2019-04-30T17:55:52.242Z,55.50
2019-04-30T17:58:21.130Z,54.40
2019-04-30T18:00:49.977Z,57.00
2019-04-30T18:03:19.020Z,57.00
2019-04-30T18:05:49.193Z,57.50
2019-04-30T18:08:16.544Z,58.50
2019-04-30T18:10:45.456Z,58.20
2019-04-30T18:13:14.319Z,57.60
2019-04-30T18:15:48.340Z,59.30
2019-04-30T18:18:16.589Z,61.80
2019-04-30T18:20:46.424Z,62.30
2019-04-30T18:23:20.743Z,63.50
2019-04-30T18:25:52.253Z,62.20
2019-04-30T18:28:21.111Z,64.20
2019-04-30T18:30:49.987Z,65.90
2019-04-30T18:33:18.833Z,67.30
2019-04-30T18:35:48.732Z,66.80
2019-04-30T18:38:17.796Z,67.50
2019-04-30T18:40:46.127Z,70.20
2019-04-30T18:43:15.711Z,71.00
2019-04-30T18:45:44.565Z,74.40
2019-04-30T18:48:13.431Z,77.10
2019-04-30T18:50:42.277Z,77.80
2019-04-30T18:53:11.146Z,81.40
2019-04-30T18:55:39.996Z,86.40
2019-04-30T18:58:08.899Z,89.20
2019-04-30T19:00:39.536Z,92.20
2019-04-30T19:03:08.533Z,96.10
2019-04-30T19:05:35.449Z,99.30
2019-04-30T19:08:06.213Z,99.90
2019-04-30T19:10:38.973Z,99.90
2019-04-30T19:13:08.924Z,99.90
2019-04-30T19:16:11.342Z,99.90
2019-04-30T19:18:09.933Z,99.90
2019-04-30T19:20:41.641Z,99.90
2019-04-30T19:23:10.517Z,99.90
2019-04-30T19:25:39.371Z,99.90
2019-04-30T19:28:12.217Z,99.90
2019-04-30T19:30:38.887Z,99.90
2019-04-30T19:33:05.949Z,99.90
2019-04-30T19:35:34.817Z,99.90
2019-04-30T19:38:04.461Z,99.90
2019-04-30T19:40:33.289Z,99.90
2019-04-30T19:43:02.893Z,99.90
2019-04-30T19:45:31.767Z,99.90
2019-04-30T19:48:00.665Z,99.90
2019-04-30T19:50:29.496Z,99.90
2019-04-30T19:52:59.119Z,99.90
2019-04-30T19:55:28.580Z,99.90
2019-04-30T19:57:56.867Z,99.90
2019-04-30T20:00:25.693Z,99.90
2019-04-30T20:02:57.256Z,99.90
2019-04-30T20:05:23.385Z,99.90
2019-04-30T20:07:52.223Z,99.90
2019-04-30T20:10:21.076Z,99.90
2019-04-30T20:12:49.943Z,99.90
2019-04-30T20:15:21.696Z,99.90
2019-04-30T20:17:49.410Z,99.90
2019-04-30T20:20:16.481Z,99.90
2019-04-30T20:22:46.100Z,99.90
2019-04-30T20:25:14.949Z,99.90
2019-04-30T20:27:43.798Z,99.90
2019-04-30T20:30:12.693Z,99.90
2019-04-30T20:32:41.521Z,99.90
2019-04-30T20:35:10.373Z,99.90
2019-04-30T20:37:44.813Z,99.90
2019-04-30T20:40:14.599Z,99.90
2019-04-30T20:42:43.430Z,99.90
2019-04-30T20:45:12.289Z,99.90
2019-04-30T20:47:41.131Z,99.90
2019-04-30T20:50:10.771Z,99.90
2019-04-30T20:52:39.646Z,99.90
2019-04-30T20:55:08.460Z,99.90
2019-04-30T20:57:37.315Z,99.90
2019-04-30T21:00:06.925Z,99.90
2019-04-30T21:02:35.786Z,99.90
2019-04-30T21:05:04.613Z,99.90
2019-04-30T21:07:33.465Z,99.90
2019-04-30T21:10:03.052Z,99.90
2019-04-30T21:12:31.897Z,99.90
2019-04-30T21:15:00.740Z,99.90
2019-04-30T21:17:29.592Z,99.90
2019-04-30T21:19:58.819Z,99.90
2019-04-30T21:22:29.474Z,99.90
2019-04-30T21:24:56.144Z,99.90
2019-04-30T21:27:24.982Z,99.90
2019-04-30T21:29:53.830Z,99.90
2019-04-30T21:32:25.616Z,99.90
2019-04-30T21:34:54.482Z,99.90
2019-04-30T21:37:23.328Z,99.90
2019-04-30T21:39:52.916Z,99.90
2019-04-30T21:42:22.501Z,99.90
2019-04-30T21:44:51.340Z,99.90
2019-04-30T21:47:20.172Z,99.90
2019-04-30T21:49:49.059Z,99.90
2019-04-30T21:52:17.886Z,99.90
2019-04-30T21:54:48.609Z,99.90
2019-04-30T21:57:15.582Z,99.90
2019-04-30T21:59:45.167Z,99.90
2019-04-30T22:02:14.019Z,99.90
2019-04-30T22:04:42.856Z,99.90
2019-04-30T22:07:11.716Z,99.90
2019-04-30T22:09:40.584Z,99.90
2019-04-30T22:12:09.421Z,99.90
2019-04-30T22:14:39.050Z,99.90
2019-04-30T22:17:09.313Z,99.90
2019-04-30T22:19:36.731Z,99.90
2019-04-30T22:22:05.582Z,99.90
2019-04-30T22:24:35.172Z,99.90
2019-04-30T22:27:04.017Z,99.90
2019-04-30T22:29:39.269Z,99.90
2019-04-30T22:32:01.712Z,99.90
2019-04-30T22:34:30.564Z,99.90
2019-04-30T22:37:00.202Z,99.90
2019-04-30T22:39:30.098Z,99.90
2019-04-30T22:42:00.164Z,99.90
2019-04-30T22:44:28.995Z,99.90
2019-04-30T22:47:00.655Z,99.90
2019-04-30T22:49:28.181Z,99.90
2019-04-30T22:54:27.192Z,99.90
2019-04-30T22:56:56.054Z,99.90
2019-04-30T22:59:24.901Z,99.90
2019-04-30T23:01:55.419Z,99.90
2019-04-30T23:04:26.885Z,99.90
2019-04-30T23:06:56.461Z,99.90
2019-04-30T23:09:25.292Z,99.90
2019-04-30T23:11:54.125Z,99.90
2019-04-30T23:14:22.986Z,99.90
2019-04-30T23:16:51.820Z,99.90
2019-04-30T23:19:20.676Z,99.90
2019-04-30T23:21:49.530Z,99.90
2019-04-30T23:24:18.375Z,99.90
2019-04-30T23:26:47.214Z,99.90
2019-04-30T23:29:16.053Z,99.90
2019-04-30T23:31:44.962Z,99.90
2019-04-30T23:34:18.107Z,99.90
2019-04-30T23:36:42.650Z,99.90
2019-04-30T23:39:12.236Z,99.90
2019-04-30T23:44:10.528Z,99.90
2019-04-30T23:46:39.416Z,99.90
2019-04-30T23:49:08.272Z,99.90
2019-04-30T23:51:37.108Z,99.90
2019-04-30T23:54:05.956Z,99.90
2019-04-30T23:56:34.794Z,99.90
2019-04-30T23:59:04.411Z,99.90
